Time;durP1;ratioP1;P1;durP2;ratioP2;P2;SDS_P1;SDS_P2;PMS_P1;PMS_P2;Temp;Humidity;BMP_temperature;BMP_pressure;BME280_temperature;BME280_humidity;BME280_pressure;Samples;Min_cycle;Max_cycle;Signal;HPM_P1;HPM_P2
2023/12/25 00:02:12;;;;;;;3.45;0.40;;;12.60;99.90;;;;;;5054372;28;20025;-62
2023/12/25 00:04:37;;;;;;;4.65;0.50;;;12.60;99.90;;;;;;5057312;28;20095;-61
2023/12/25 00:07:03;;;;;;;0.55;0.30;;;12.60;99.90;;;;;;5057219;28;20063;-63
2023/12/25 00:09:28;;;;;;;1.40;0.60;;;12.60;99.90;;;;;;5049307;28;20521;-61
2023/12/25 00:11:54;;;;;;;0.50;0.40;;;12.50;99.90;;;;;;5051347;28;20107;-63
2023/12/25 00:14:20;;;;;;;0.30;0.30;;;12.60;99.90;;;;;;5048918;28;20040;-64
2023/12/25 00:16:46;;;;;;;0.40;0.40;;;12.60;99.90;;;;;;5051643;28;20122;-63
2023/12/25 00:19:11;;;;;;;2.17;0.63;;;12.50;99.90;;;;;;5047866;28;20112;-63
2023/12/25 00:21:37;;;;;;;0.73;0.50;;;12.60;99.90;;;;;;5058147;28;20108;-63
2023/12/25 00:24:04;;;;;;;0.95;0.40;;;12.60;99.90;;;;;;5052265;28;20053;-64
2023/12/25 00:26:29;;;;;;;0.40;0.40;;;12.60;99.90;;;;;;5054386;28;20116;-64
2023/12/25 00:28:55;;;;;;;0.47;0.30;;;12.60;99.90;;;;;;5044474;28;20534;-64
2023/12/25 00:31:20;;;;;;;0.88;0.43;;;12.50;99.90;;;;;;5051441;28;20044;-65
2023/12/25 00:33:46;;;;;;;0.38;0.30;;;12.50;99.90;;;;;;5049464;28;20037;-64
2023/12/25 00:36:12;;;;;;;0.73;0.43;;;12.50;99.90;;;;;;5060827;28;20390;-64
2023/12/25 00:38:38;;;;;;;0.90;0.60;;;12.50;99.90;;;;;;5043605;28;20514;-64
2023/12/25 00:41:04;;;;;;;0.35;0.35;;;12.50;99.90;;;;;;5057976;28;20039;-63
2023/12/25 00:43:29;;;;;;;0.47;0.47;;;12.50;99.90;;;;;;5057303;28;20483;-63
2023/12/25 00:45:55;;;;;;;1.05;0.40;;;12.50;99.90;;;;;;5051579;28;20025;-63
2023/12/25 00:48:20;;;;;;;0.98;0.30;;;12.50;99.90;;;;;;5051842;28;20083;-63
2023/12/25 00:50:46;;;;;;;0.85;0.52;;;12.50;99.90;;;;;;5050361;28;20036;-63
2023/12/25 00:53:11;;;;;;;1.95;0.35;;;12.60;99.90;;;;;;5059411;28;20036;-64
2023/12/25 00:55:37;;;;;;;1.27;0.50;;;12.50;99.90;;;;;;5051562;28;20067;-63
2023/12/25 00:58:02;;;;;;;0.90;0.50;;;12.50;99.90;;;;;;5051151;28;20111;-63
2023/12/25 01:00:28;;;;;;;1.13;0.50;;;12.50;99.90;;;;;;5049140;28;20391;-64
2023/12/25 01:02:53;;;;;;;1.92;0.50;;;12.50;99.90;;;;;;5055946;28;20455;-63
2023/12/25 01:05:19;;;;;;;4.95;0.50;;;12.50;99.90;;;;;;5050091;28;20017;-63
2023/12/25 01:07:44;;;;;;;0.43;0.40;;;12.50;99.90;;;;;;5051576;28;20092;-63
2023/12/25 01:10:10;;;;;;;2.65;0.35;;;12.50;99.90;;;;;;5047386;28;20025;-62
2023/12/25 01:12:35;;;;;;;0.22;0.20;;;12.50;99.90;;;;;;5046866;28;20032;-63
2023/12/25 01:15:01;;;;;;;0.40;0.30;;;12.50;99.90;;;;;;5045271;28;20403;-64
2023/12/25 01:17:26;;;;;;;0.45;0.40;;;12.50;99.90;;;;;;5054803;28;20550;-64
2023/12/25 01:19:52;;;;;;;4.05;0.32;;;12.50;99.90;;;;;;5040951;28;20033;-63
2023/12/25 01:22:18;;;;;;;0.57;0.30;;;12.50;99.90;;;;;;5053914;28;20025;-64
2023/12/25 01:24:44;;;;;;;0.30;0.30;;;12.50;99.90;;;;;;5042969;28;20435;-63
2023/12/25 01:27:09;;;;;;;0.50;0.40;;;12.50;99.90;;;;;;5048605;28;20079;-64
2023/12/25 01:29:35;;;;;;;2.15;0.25;;;12.50;99.90;;;;;;5044592;28;20102;-63
2023/12/25 01:32:00;;;;;;;0.70;0.65;;;12.50;99.90;;;;;;5049022;28;20021;-64
2023/12/25 01:34:26;;;;;;;0.22;0.22;;;12.60;99.90;;;;;;5048860;28;20017;-63
2023/12/25 01:36:51;;;;;;;1.35;0.40;;;12.50;99.90;;;;;;5050359;28;20526;-63
2023/12/25 01:39:17;;;;;;;0.40;0.38;;;12.60;99.90;;;;;;5048844;28;20035;-63
2023/12/25 01:41:42;;;;;;;1.08;0.20;;;12.50;99.90;;;;;;5056930;28;20021;-63
2023/12/25 01:44:08;;;;;;;0.40;0.22;;;12.60;99.90;;;;;;5044369;28;20036;-63
2023/12/25 01:46:34;;;;;;;1.17;0.40;;;12.60;99.90;;;;;;5055127;28;20439;-69
2023/12/25 01:49:00;;;;;;;0.35;0.35;;;12.60;99.90;;;;;;5042975;28;20025;-63
2023/12/25 01:51:26;;;;;;;0.20;0.20;;;12.60;99.90;;;;;;5046015;28;20032;-64
2023/12/25 01:53:52;;;;;;;0.45;0.20;;;12.60;99.90;;;;;;5043042;28;20633;-64
2023/12/25 01:56:18;;;;;;;1.40;0.30;;;12.60;99.90;;;;;;5048640;28;20025;-64
2023/12/25 01:58:44;;;;;;;0.73;0.30;;;12.60;99.90;;;;;;5045473;28;20135;-64
2023/12/25 02:01:09;;;;;;;1.70;0.40;;;12.60;99.90;;;;;;5050616;28;20032;-64
2023/12/25 02:03:35;;;;;;;1.58;0.30;;;12.60;99.90;;;;;;5044700;28;20020;-64
2023/12/25 02:06:01;;;;;;;0.20;0.20;;;12.60;99.90;;;;;;5053471;28;20049;-65
2023/12/25 02:08:28;;;;;;;0.28;0.28;;;12.70;99.90;;;;;;5044058;28;20494;-64
2023/12/25 02:10:54;;;;;;;0.43;0.30;;;12.70;99.90;;;;;;5046278;28;20115;-63
2023/12/25 02:13:19;;;;;;;0.38;0.38;;;12.60;99.90;;;;;;5048316;28;20044;-64
2023/12/25 02:15:46;;;;;;;0.68;0.30;;;12.60;99.90;;;;;;5047843;28;20112;-64
2023/12/25 02:18:12;;;;;;;0.20;0.20;;;12.60;99.90;;;;;;5054637;28;20027;-63
2023/12/25 02:20:38;;;;;;;0.20;0.20;;;12.60;99.90;;;;;;5044422;28;20039;-63
2023/12/25 02:23:08;;;;;;;0.75;0.30;;;12.60;99.90;;;;;;5045109;28;20025;-64
2023/12/25 02:25:37;;;;;;;0.20;0.20;;;12.60;99.90;;;;;;5040411;28;20056;-64
2023/12/25 02:28:04;;;;;;;0.20;0.20;;;12.60;99.90;;;;;;5048460;28;20506;-63
2023/12/25 02:30:30;;;;;;;2.03;0.25;;;12.50;99.90;;;;;;5045655;28;20048;-64
2023/12/25 02:32:55;;;;;;;2.92;0.30;;;12.50;99.90;;;;;;5049055;28;20024;-64
2023/12/25 02:35:21;;;;;;;0.30;0.20;;;12.50;99.90;;;;;;5052487;28;20024;-64
2023/12/25 02:37:47;;;;;;;0.22;0.22;;;12.40;99.90;;;;;;5049223;28;20523;-64
2023/12/25 02:40:12;;;;;;;0.60;0.20;;;12.40;99.90;;;;;;5040180;28;20040;-64
2023/12/25 02:42:38;;;;;;;0.30;0.20;;;12.40;99.90;;;;;;5048692;28;20505;-65
2023/12/25 02:45:04;;;;;;;1.63;0.40;;;12.40;99.90;;;;;;5046461;28;20028;-61
2023/12/25 02:47:29;;;;;;;0.65;0.40;;;12.30;99.90;;;;;;5042306;28;20044;-64
2023/12/25 02:49:55;;;;;;;0.52;0.40;;;12.30;99.90;;;;;;5052173;28;20491;-63
2023/12/25 02:52:20;;;;;;;0.32;0.30;;;12.30;99.90;;;;;;5055269;28;20066;-64
2023/12/25 02:54:46;;;;;;;2.38;0.45;;;12.30;99.90;;;;;;5043935;28;20099;-64
2023/12/25 02:57:12;;;;;;;3.00;0.35;;;12.30;99.90;;;;;;5046887;28;20033;-64
2023/12/25 02:59:37;;;;;;;1.25;0.40;;;12.30;99.90;;;;;;5049107;28;20052;-64
2023/12/25 03:02:04;;;;;;;1.67;0.40;;;12.20;99.90;;;;;;5051935;28;20036;-63
2023/12/25 03:04:29;;;;;;;0.50;0.38;;;12.20;99.90;;;;;;5047253;28;20028;-64
2023/12/25 03:06:55;;;;;;;2.35;0.30;;;12.20;99.90;;;;;;5048633;28;20029;-65
2023/12/25 03:09:20;;;;;;;2.00;0.20;;;12.20;99.90;;;;;;5048849;28;20048;-64
2023/12/25 03:11:46;;;;;;;2.75;0.43;;;12.20;99.90;;;;;;5048990;28;20024;-64
2023/12/25 03:14:11;;;;;;;1.17;0.40;;;12.30;99.90;;;;;;5045806;28;20403;-64
2023/12/25 03:16:37;;;;;;;2.45;0.30;;;12.30;99.90;;;;;;5048316;28;20398;-64
2023/12/25 03:19:03;;;;;;;2.80;0.40;;;12.30;99.90;;;;;;5044700;28;20048;-63
2023/12/25 03:21:28;;;;;;;1.30;0.30;;;12.30;99.90;;;;;;5047264;28;20138;-64
2023/12/25 03:23:54;;;;;;;0.88;0.40;;;12.40;99.90;;;;;;5043070;28;20057;-64
2023/12/25 03:26:19;;;;;;;2.00;0.45;;;12.40;99.90;;;;;;5055269;28;20107;-64
2023/12/25 03:28:45;;;;;;;0.35;0.30;;;12.40;99.90;;;;;;5042514;28;20033;-64
2023/12/25 03:31:11;;;;;;;0.68;0.20;;;12.40;99.90;;;;;;5050373;28;20028;-64
2023/12/25 03:33:37;;;;;;;1.55;0.30;;;12.40;99.90;;;;;;5043171;28;20489;-64
2023/12/25 03:36:04;;;;;;;1.17;0.28;;;12.40;99.90;;;;;;5043136;28;20124;-64
2023/12/25 03:38:30;;;;;;;2.30;0.50;;;12.40;99.90;;;;;;5044596;28;20017;-64
2023/12/25 03:40:55;;;;;;;0.35;0.32;;;12.40;99.90;;;;;;5052699;28;19913;-63
2023/12/25 03:43:23;;;;;;;0.45;0.30;;;12.40;99.90;;;;;;5047655;28;20056;-63
2023/12/25 03:45:49;;;;;;;0.93;0.40;;;12.50;99.90;;;;;;5045299;28;20392;-63
2023/12/25 03:48:15;;;;;;;1.20;0.40;;;12.50;99.90;;;;;;5043733;28;20029;-63
2023/12/25 03:50:41;;;;;;;1.10;0.40;;;12.50;99.90;;;;;;5048718;28;20127;-64
2023/12/25 03:53:07;;;;;;;0.88;0.60;;;12.40;99.90;;;;;;5048980;28;20195;-63
2023/12/25 03:55:33;;;;;;;2.75;0.60;;;12.40;99.90;;;;;;5050186;28;20036;-64
2023/12/25 03:57:58;;;;;;;1.13;0.52;;;12.40;99.90;;;;;;5056396;28;20036;-64
2023/12/25 04:00:24;;;;;;;1.00;0.38;;;12.30;99.90;;;;;;5052844;28;20029;-65
2023/12/25 04:02:50;;;;;;;3.22;0.60;;;12.30;99.90;;;;;;5040468;28;20031;-64
2023/12/25 04:05:16;;;;;;;4.20;0.50;;;12.30;99.90;;;;;;5054722;28;20112;-64
2023/12/25 04:07:42;;;;;;;0.73;0.50;;;12.30;99.90;;;;;;5046539;28;20465;-64
2023/12/25 04:10:08;;;;;;;3.55;0.60;;;12.30;99.90;;;;;;5045009;28;20439;-62
2023/12/25 04:12:33;;;;;;;1.08;0.60;;;12.30;99.90;;;;;;5049519;28;20028;-64
2023/12/25 04:14:59;;;;;;;3.28;0.70;;;12.30;99.90;;;;;;5049657;28;20094;-64
2023/12/25 04:17:26;;;;;;;1.13;0.52;;;12.30;99.90;;;;;;5042555;28;20057;-64
2023/12/25 04:19:51;;;;;;;0.93;0.55;;;12.30;99.90;;;;;;5043349;28;20044;-65
2023/12/25 04:22:17;;;;;;;0.93;0.50;;;12.40;99.90;;;;;;5048255;28;20100;-64
2023/12/25 04:24:42;;;;;;;3.10;0.68;;;12.50;99.90;;;;;;5045495;28;20087;-64
2023/12/25 04:27:08;;;;;;;1.70;0.60;;;12.40;99.90;;;;;;5045279;28;20037;-64
2023/12/25 04:29:33;;;;;;;1.50;0.60;;;12.50;99.90;;;;;;5043907;28;20033;-65
2023/12/25 04:31:59;;;;;;;1.00;0.40;;;12.50;99.90;;;;;;5046634;28;20032;-64
2023/12/25 04:34:24;;;;;;;1.50;0.50;;;12.60;99.90;;;;;;5048671;28;20055;-64
2023/12/25 04:36:50;;;;;;;0.65;0.40;;;12.70;99.90;;;;;;5041548;28;20100;-64
2023/12/25 04:39:15;;;;;;;0.43;0.40;;;12.70;99.90;;;;;;5043675;28;20044;-64
2023/12/25 04:41:41;;;;;;;0.85;0.35;;;12.70;99.90;;;;;;5046878;28;20021;-63
2023/12/25 04:44:07;;;;;;;1.67;0.40;;;12.70;99.90;;;;;;5045507;28;20510;-64
2023/12/25 04:46:33;;;;;;;0.90;0.28;;;12.70;99.90;;;;;;5048375;28;20039;-64
2023/12/25 04:48:58;;;;;;;0.75;0.30;;;12.70;99.90;;;;;;5043931;28;20112;-62
2023/12/25 04:51:24;;;;;;;2.78;0.52;;;12.60;99.90;;;;;;5051226;28;20108;-63
2023/12/25 04:53:49;;;;;;;0.88;0.40;;;12.60;99.90;;;;;;5042348;28;20430;-64
2023/12/25 04:56:16;;;;;;;0.30;0.30;;;12.70;99.90;;;;;;5045236;28;20037;-64
2023/12/25 04:58:42;;;;;;;1.02;0.40;;;12.60;99.90;;;;;;5049351;28;20027;-64
2023/12/25 05:01:08;;;;;;;1.27;0.25;;;12.70;99.90;;;;;;5048811;28;20032;-63
2023/12/25 05:03:33;;;;;;;0.90;0.38;;;12.60;99.90;;;;;;5048375;28;20021;-63
2023/12/25 05:05:59;;;;;;;1.73;0.40;;;12.60;99.90;;;;;;5046297;28;20025;-63
2023/12/25 05:08:25;;;;;;;3.13;0.70;;;12.50;99.90;;;;;;5052959;28;20030;-64
2023/12/25 05:10:51;;;;;;;0.80;0.50;;;12.50;99.90;;;;;;5044728;28;20047;-65
2023/12/25 05:13:17;;;;;;;0.63;0.50;;;12.40;99.90;;;;;;5047813;28;20021;-64
2023/12/25 05:15:42;;;;;;;0.25;0.25;;;12.40;99.90;;;;;;5046737;28;20495;-64
2023/12/25 05:18:08;;;;;;;0.57;0.30;;;12.30;99.90;;;;;;5044470;28;20028;-63
2023/12/25 05:20:33;;;;;;;0.68;0.32;;;12.20;99.90;;;;;;5044640;28;20027;-63
2023/12/25 05:22:59;;;;;;;2.42;0.40;;;12.20;99.90;;;;;;5051266;28;20077;-64
2023/12/25 05:25:24;;;;;;;0.20;0.20;;;12.20;99.90;;;;;;5047595;28;20100;-65
2023/12/25 05:27:50;;;;;;;1.00;0.40;;;12.20;99.90;;;;;;5044546;28;20172;-65
2023/12/25 05:30:15;;;;;;;0.40;0.40;;;12.10;99.90;;;;;;5011457;28;1038068;-65
2023/12/25 05:32:41;;;;;;;0.47;0.30;;;12.10;99.90;;;;;;5047760;28;20104;-64
2023/12/25 05:35:07;;;;;;;1.05;0.32;;;12.00;99.90;;;;;;5042706;28;20112;-64
2023/12/25 05:37:33;;;;;;;0.47;0.40;;;12.00;99.90;;;;;;5044680;28;20029;-63
2023/12/25 05:39:59;;;;;;;0.20;0.20;;;12.00;99.90;;;;;;5046117;28;20037;-64
2023/12/25 05:42:24;;;;;;;1.55;0.30;;;11.90;99.90;;;;;;5049234;28;20021;-65
2023/12/25 05:44:50;;;;;;;2.38;0.25;;;11.90;99.90;;;;;;5049568;28;20104;-64
2023/12/25 05:47:15;;;;;;;0.30;0.30;;;11.90;99.90;;;;;;5049710;28;20026;-63
2023/12/25 05:49:41;;;;;;;0.88;0.30;;;11.80;99.90;;;;;;5041132;28;20032;-64
2023/12/25 05:52:07;;;;;;;0.30;0.30;;;11.80;99.90;;;;;;5046767;28;20025;-64
2023/12/25 05:54:32;;;;;;;4.10;0.60;;;11.80;99.90;;;;;;5046968;28;20549;-63
2023/12/25 05:56:58;;;;;;;2.60;0.20;;;11.80;99.90;;;;;;5044217;28;20499;-62
2023/12/25 05:59:24;;;;;;;0.13;0.13;;;11.80;99.90;;;;;;5048886;28;20094;-62
2023/12/25 06:01:50;;;;;;;0.43;0.22;;;11.80;99.90;;;;;;5052160;28;20112;-62
2023/12/25 06:04:15;;;;;;;0.45;0.20;;;11.80;99.90;;;;;;5042136;28;20075;-61
2023/12/25 06:06:41;;;;;;;0.50;0.30;;;11.70;99.90;;;;;;5044396;28;20025;-62
2023/12/25 06:09:10;;;;;;;0.20;0.20;;;11.70;99.90;;;;;;5045209;28;20021;-63
2023/12/25 06:11:35;;;;;;;0.30;0.30;;;11.70;99.90;;;;;;5048325;28;20027;-64
2023/12/25 06:14:01;;;;;;;2.10;0.30;;;11.70;99.90;;;;;;5047509;28;20406;-64
2023/12/25 06:16:26;;;;;;;1.92;0.30;;;11.70;99.90;;;;;;5050623;28;20027;-63
2023/12/25 06:18:52;;;;;;;0.30;0.30;;;11.70;99.90;;;;;;5045648;28;20403;-64
2023/12/25 06:21:17;;;;;;;0.20;0.20;;;11.70;99.90;;;;;;5050225;28;20484;-63
2023/12/25 06:23:43;;;;;;;0.30;0.20;;;11.70;99.90;;;;;;5044211;28;20044;-63
2023/12/25 06:26:09;;;;;;;1.35;0.30;;;11.60;99.90;;;;;;5053870;28;20021;-63
2023/12/25 06:28:34;;;;;;;0.30;0.30;;;11.60;99.90;;;;;;5052197;28;20021;-64
2023/12/25 06:31:00;;;;;;;0.30;0.30;;;11.60;99.90;;;;;;5047605;28;20033;-64
2023/12/25 06:33:25;;;;;;;0.30;0.30;;;11.70;99.90;;;;;;5043441;28;20065;-65
2023/12/25 06:35:51;;;;;;;0.55;0.30;;;11.70;99.90;;;;;;5050272;28;20402;-64
2023/12/25 06:38:17;;;;;;;0.40;0.20;;;11.60;99.90;;;;;;5045530;28;20061;-64
2023/12/25 06:40:42;;;;;;;0.60;0.25;;;11.60;99.90;;;;;;5053841;28;20529;-64
2023/12/25 06:43:08;;;;;;;0.88;0.20;;;11.60;99.90;;;;;;5048194;28;20033;-64
2023/12/25 06:45:34;;;;;;;2.35;0.35;;;11.70;99.90;;;;;;5047634;28;20028;-64
2023/12/25 06:48:00;;;;;;;0.30;0.30;;;11.70;99.90;;;;;;5049732;28;20048;-65
2023/12/25 06:50:25;;;;;;;2.90;0.30;;;11.60;99.90;;;;;;5047081;28;20025;-65
2023/12/25 06:52:51;;;;;;;0.43;0.40;;;11.70;99.90;;;;;;5046192;28;20075;-65
2023/12/25 06:55:17;;;;;;;0.30;0.30;;;11.70;99.90;;;;;;5046795;28;20499;-65
2023/12/25 06:57:43;;;;;;;0.60;0.30;;;11.60;99.90;;;;;;5045645;28;20125;-65
2023/12/25 07:00:10;;;;;;;0.65;0.30;;;11.60;99.90;;;;;;5043842;28;20040;-65
2023/12/25 07:02:36;;;;;;;0.40;0.40;;;11.60;99.90;;;;;;5042646;28;20112;-64
2023/12/25 07:05:02;;;;;;;1.98;0.40;;;11.60;99.90;;;;;;5046651;28;20113;-64
2023/12/25 07:07:28;;;;;;;0.10;0.10;;;11.70;99.90;;;;;;5050035;28;20029;-64
2023/12/25 07:09:53;;;;;;;0.70;0.20;;;11.70;99.90;;;;;;5044190;28;20555;-64
2023/12/25 07:12:19;;;;;;;0.47;0.30;;;11.70;99.90;;;;;;5048474;28;20037;-64
2023/12/25 07:14:47;;;;;;;0.20;0.20;;;11.60;99.90;;;;;;5046228;28;20105;-65
2023/12/25 07:17:13;;;;;;;2.50;0.30;;;11.60;99.90;;;;;;5048967;28;20602;-64
2023/12/25 07:19:39;;;;;;;0.90;0.40;;;11.60;99.90;;;;;;5047058;28;20483;-65
2023/12/25 07:22:05;;;;;;;0.85;0.30;;;11.70;99.90;;;;;;5047802;28;20021;-65
2023/12/25 07:24:30;;;;;;;2.97;0.35;;;11.70;99.90;;;;;;5046458;28;20025;-64
2023/12/25 07:26:56;;;;;;;1.00;0.30;;;11.70;99.90;;;;;;5049082;28;20039;-65
2023/12/25 07:29:22;;;;;;;2.63;0.40;;;11.70;99.90;;;;;;5040785;28;20115;-65
2023/12/25 07:31:48;;;;;;;0.22;0.22;;;11.70;99.90;;;;;;5048969;28;20053;-66
2023/12/25 07:34:13;;;;;;;0.43;0.30;;;11.70;99.90;;;;;;5049474;28;20119;-65
2023/12/25 07:36:39;;;;;;;2.78;0.40;;;11.70;99.90;;;;;;5050504;28;20039;-64
2023/12/25 07:39:05;;;;;;;0.52;0.47;;;11.60;99.90;;;;;;5049647;28;20025;-65
2023/12/25 07:41:31;;;;;;;0.90;0.45;;;11.80;99.90;;;;;;5048551;28;20017;-65
2023/12/25 07:44:00;;;;;;;0.40;0.40;;;11.70;99.90;;;;;;5047946;28;20430;-65
2023/12/25 07:46:26;;;;;;;0.50;0.43;;;11.80;99.90;;;;;;5052234;28;20532;-63
2023/12/25 07:48:52;;;;;;;0.43;0.25;;;11.70;99.90;;;;;;5037286;28;20025;-64
2023/12/25 07:51:17;;;;;;;0.50;0.40;;;11.70;99.90;;;;;;5050824;28;20021;-65
2023/12/25 07:53:43;;;;;;;0.47;0.30;;;11.70;99.90;;;;;;5047120;28;20041;-65
2023/12/25 07:56:08;;;;;;;0.43;0.20;;;11.70;99.90;;;;;;5049406;28;20033;-65
2023/12/25 07:58:35;;;;;;;1.42;0.28;;;11.70;99.90;;;;;;5046416;28;20028;-65
2023/12/25 08:01:01;;;;;;;0.30;0.30;;;11.70;99.90;;;;;;5047356;28;20029;-66
2023/12/25 08:03:27;;;;;;;2.05;0.30;;;11.60;99.90;;;;;;5049304;28;20032;-65
2023/12/25 08:05:53;;;;;;;0.85;0.30;;;11.70;99.90;;;;;;5050102;28;20033;-66
2023/12/25 08:08:18;;;;;;;0.38;0.38;;;11.70;99.90;;;;;;5047609;28;20048;-65
2023/12/25 08:10:44;;;;;;;3.13;0.50;;;11.80;99.90;;;;;;5044387;28;20033;-65
2023/12/25 08:13:09;;;;;;;2.78;0.28;;;11.70;99.90;;;;;;5044388;28;20092;-64
2023/12/25 08:15:36;;;;;;;0.90;0.20;;;11.80;99.90;;;;;;5047047;28;20162;-64
2023/12/25 08:18:01;;;;;;;0.50;0.35;;;11.80;99.90;;;;;;5045454;28;20035;-65
2023/12/25 08:20:27;;;;;;;1.63;0.77;;;11.80;99.90;;;;;;5046567;28;20394;-63
2023/12/25 08:22:52;;;;;;;1.63;0.93;;;11.90;99.90;;;;;;5056832;28;20036;-65
2023/12/25 08:25:18;;;;;;;0.40;0.30;;;12.00;99.90;;;;;;5046760;28;20104;-64
2023/12/25 08:27:44;;;;;;;0.30;0.20;;;11.90;99.90;;;;;;5053808;28;20505;-64
2023/12/25 08:30:11;;;;;;;0.20;0.20;;;12.00;99.90;;;;;;5049744;28;20025;-64
2023/12/25 08:32:36;;;;;;;0.80;0.30;;;12.00;99.90;;;;;;5049656;28;20020;-64
2023/12/25 08:35:03;;;;;;;0.30;0.20;;;12.00;99.90;;;;;;5051142;28;20029;-64
2023/12/25 08:37:29;;;;;;;0.82;0.22;;;12.00;99.90;;;;;;5050717;28;20044;-63
2023/12/25 08:39:54;;;;;;;1.95;0.30;;;12.00;99.90;;;;;;5053508;28;20029;-65
2023/12/25 08:42:20;;;;;;;2.75;0.32;;;12.00;99.90;;;;;;5053093;28;20021;-65
2023/12/25 08:44:47;;;;;;;1.10;0.20;;;12.00;99.90;;;;;;5050014;28;20029;-65
2023/12/25 08:47:14;;;;;;;0.65;0.40;;;12.10;99.90;;;;;;5051920;28;20064;-64
2023/12/25 08:49:40;;;;;;;0.32;0.30;;;12.10;99.90;;;;;;5050675;28;20087;-64
2023/12/25 08:52:06;;;;;;;0.43;0.30;;;12.10;99.90;;;;;;5048048;28;20025;-65
2023/12/25 08:54:31;;;;;;;0.40;0.30;;;12.20;99.90;;;;;;5054655;28;20475;-63
2023/12/25 08:57:00;;;;;;;7.70;1.25;;;12.20;99.90;;;;;;5046661;28;20029;-64
2023/12/25 08:59:26;;;;;;;0.30;0.30;;;12.10;99.90;;;;;;5048861;28;20556;-63
2023/12/25 09:01:51;;;;;;;3.40;1.02;;;12.20;99.90;;;;;;5048705;28;20029;-64
2023/12/25 09:04:17;;;;;;;0.20;0.20;;;12.20;99.90;;;;;;5053085;28;20021;-64
2023/12/25 09:06:43;;;;;;;0.47;0.47;;;12.20;99.90;;;;;;5055529;28;20016;-62
2023/12/25 09:09:11;;;;;;;0.88;0.52;;;12.40;99.90;;;;;;5050214;28;20055;-64
2023/12/25 09:11:37;;;;;;;0.43;0.30;;;12.30;99.90;;;;;;5041847;28;20037;-63
2023/12/25 09:14:03;;;;;;;0.30;0.30;;;12.30;99.90;;;;;;5047175;28;20090;-64
2023/12/25 09:16:29;;;;;;;0.70;0.30;;;12.30;99.90;;;;;;5050576;28;20106;-64
2023/12/25 09:18:54;;;;;;;0.63;0.30;;;12.30;99.90;;;;;;5050983;28;20471;-64
2023/12/25 09:21:20;;;;;;;3.80;2.17;;;12.30;99.90;;;;;;5054704;28;20029;-65
2023/12/25 09:23:46;;;;;;;1.10;0.47;;;12.40;99.90;;;;;;5050300;28;20106;-65
2023/12/25 09:26:19;;;;;;;0.20;0.20;;;12.40;99.90;;;;;;5049821;28;20025;-64
2023/12/25 09:28:45;;;;;;;0.20;0.20;;;12.40;99.90;;;;;;5048674;28;20534;-65
2023/12/25 09:31:11;;;;;;;0.10;0.10;;;12.30;99.90;;;;;;5043579;28;20029;-59
2023/12/25 09:33:37;;;;;;;0.30;0.30;;;12.30;99.90;;;;;;5049179;28;20500;-59
2023/12/25 09:36:03;;;;;;;1.65;0.35;;;12.30;99.90;;;;;;5051967;28;20095;-58
2023/12/25 09:38:28;;;;;;;0.30;0.20;;;12.40;99.90;;;;;;5054568;28;20158;-60
2023/12/25 09:40:55;;;;;;;0.65;0.40;;;12.30;99.90;;;;;;5051767;28;20029;-59
2023/12/25 09:43:22;;;;;;;0.75;0.40;;;12.30;99.90;;;;;;5051215;28;20487;-57
2023/12/25 09:45:49;;;;;;;3.33;0.60;;;12.30;99.90;;;;;;5041757;28;20033;-60
2023/12/25 09:48:16;;;;;;;1.65;0.40;;;12.30;99.90;;;;;;5047934;28;20383;-60
2023/12/25 09:50:43;;;;;;;0.43;0.30;;;12.30;99.90;;;;;;5047696;28;20025;-59
2023/12/25 09:53:08;;;;;;;0.45;0.35;;;12.40;99.90;;;;;;5033942;28;20128;-58
2023/12/25 09:55:34;;;;;;;0.43;0.38;;;12.50;99.90;;;;;;5048970;28;20530;-58
2023/12/25 09:58:03;;;;;;;0.25;0.25;;;12.50;99.90;;;;;;5049815;28;20064;-60
2023/12/25 10:00:29;;;;;;;1.20;0.30;;;12.50;99.90;;;;;;5050341;28;20542;-57
2023/12/25 10:02:57;;;;;;;1.95;0.40;;;12.50;99.90;;;;;;5044915;28;20124;-59
2023/12/25 10:05:22;;;;;;;1.48;0.30;;;12.50;99.90;;;;;;5055320;28;20483;-57
2023/12/25 10:07:48;;;;;;;0.30;0.30;;;12.60;99.90;;;;;;5048199;28;20017;-59
2023/12/25 10:10:13;;;;;;;0.55;0.40;;;12.60;99.90;;;;;;5054674;28;20058;-59
2023/12/25 10:12:44;;;;;;;0.45;0.20;;;12.50;99.90;;;;;;5047823;28;20021;-59
2023/12/25 10:15:11;;;;;;;0.20;0.20;;;12.50;99.90;;;;;;5046294;28;20076;-56
2023/12/25 10:17:37;;;;;;;0.25;0.25;;;12.60;99.90;;;;;;5048256;28;20025;-55
2023/12/25 10:20:04;;;;;;;0.15;0.15;;;12.60;99.90;;;;;;5047825;28;20017;-60
2023/12/25 10:22:32;;;;;;;0.35;0.30;;;12.60;99.90;;;;;;5050186;28;20082;-60
2023/12/25 10:25:07;;;;;;;0.20;0.20;;;12.60;99.90;;;;;;5042753;28;20691;-60
2023/12/25 10:27:43;;;;;;;0.52;0.30;;;12.60;99.90;;;;;;5041019;28;20044;-59
2023/12/25 10:30:23;;;;;;;0.20;0.20;;;12.60;99.90;;;;;;5041322;28;20031;-59
2023/12/25 10:33:07;;;;;;;0.20;0.20;;;12.70;99.90;;;;;;5049534;28;20079;-58
2023/12/25 10:35:32;;;;;;;2.38;0.40;;;12.70;99.90;;;;;;5051602;28;20041;-59
2023/12/25 10:37:58;;;;;;;0.80;0.30;;;12.70;99.90;;;;;;5047417;28;20518;-58
2023/12/25 10:40:27;;;;;;;0.25;0.25;;;12.70;99.90;;;;;;5046473;28;20083;-59
2023/12/25 10:42:55;;;;;;;0.47;0.40;;;12.70;99.90;;;;;;5058030;28;20109;-59
2023/12/25 10:45:22;;;;;;;0.75;0.60;;;12.70;99.90;;;;;;5049136;28;20106;-59
2023/12/25 10:47:50;;;;;;;0.32;0.32;;;12.70;99.90;;;;;;5049134;28;20025;-59
2023/12/25 10:50:20;;;;;;;0.55;0.38;;;12.80;99.90;;;;;;5042411;28;20025;-58
2023/12/25 10:52:51;;;;;;;0.65;0.38;;;12.80;99.90;;;;;;5050720;28;20025;-58
2023/12/25 10:55:25;;;;;;;1.13;0.20;;;12.80;99.90;;;;;;5047810;28;20040;-59
2023/12/25 10:57:52;;;;;;;0.30;0.30;;;12.80;99.90;;;;;;5049588;28;20100;-60
2023/12/25 11:00:20;;;;;;;1.60;0.95;;;12.80;99.90;;;;;;5050558;28;20487;-58
2023/12/25 11:02:51;;;;;;;0.43;0.30;;;12.80;99.90;;;;;;5044112;28;20032;-59
2023/12/25 11:05:17;;;;;;;0.47;0.30;;;12.80;99.90;;;;;;5047097;28;20051;-60
2023/12/25 11:07:43;;;;;;;0.30;0.30;;;12.80;99.90;;;;;;5051278;28;20066;-58
2023/12/25 11:10:11;;;;;;;0.40;0.40;;;12.80;99.90;;;;;;5046156;28;20041;-61
2023/12/25 11:12:38;;;;;;;0.30;0.30;;;12.80;99.90;;;;;;5050584;28;20052;-56
2023/12/25 11:15:06;;;;;;;0.43;0.43;;;12.90;99.90;;;;;;5051452;28;20291;-57
2023/12/25 11:17:34;;;;;;;0.50;0.40;;;12.90;99.90;;;;;;5048445;28;20074;-53
2023/12/25 11:20:03;;;;;;;1.55;0.30;;;12.90;99.90;;;;;;5051695;28;20033;-58
2023/12/25 11:22:30;;;;;;;0.40;0.40;;;12.90;99.90;;;;;;5046298;28;20033;-60
2023/12/25 11:25:00;;;;;;;0.47;0.47;;;12.90;99.90;;;;;;5052201;28;20047;-58
2023/12/25 11:27:29;;;;;;;0.35;0.35;;;12.90;99.90;;;;;;5046980;28;20053;-56
2023/12/25 11:30:03;;;;;;;0.50;0.40;;;12.90;99.90;;;;;;5044526;28;20545;-56
2023/12/25 11:32:30;;;;;;;0.30;0.30;;;13.00;99.90;;;;;;5044886;28;20045;-57
2023/12/25 11:34:56;;;;;;;1.48;0.60;;;13.00;99.90;;;;;;5046898;28;20044;-58
2023/12/25 11:37:25;;;;;;;0.80;0.57;;;13.00;99.90;;;;;;5045206;28;20024;-57
2023/12/25 11:40:08;;;;;;;0.30;0.30;;;13.00;99.90;;;;;;5048096;28;20074;-58
2023/12/25 11:42:37;;;;;;;0.30;0.30;;;13.00;99.90;;;;;;5044605;28;20082;-58
2023/12/25 11:45:08;;;;;;;0.40;0.40;;;13.00;99.90;;;;;;5047159;28;20090;-57
2023/12/25 11:47:44;;;;;;;0.38;0.30;;;13.00;99.90;;;;;;5044025;28;20103;-56
2023/12/25 11:50:12;;;;;;;0.43;0.30;;;13.00;99.90;;;;;;5048613;28;20116;-55
2023/12/25 11:52:46;;;;;;;1.17;0.55;;;13.00;99.90;;;;;;5045082;28;20029;-58
2023/12/25 11:55:18;;;;;;;;;;;13.00;99.90;;;;;;5049525;28;20029;-57
2023/12/25 11:57:44;;;;;;;0.30;0.30;;;13.00;99.90;;;;;;5042362;28;19947;-56
2023/12/25 12:00:21;;;;;;;0.57;0.40;;;13.00;99.90;;;;;;5045455;28;20032;-57
2023/12/25 12:02:48;;;;;;;0.90;0.40;;;13.00;99.90;;;;;;5047937;28;20086;-56
2023/12/25 12:05:14;;;;;;;0.60;0.40;;;13.00;99.90;;;;;;5047412;28;20084;-57
2023/12/25 12:07:40;;;;;;;1.13;0.50;;;13.00;99.90;;;;;;5054677;28;20028;-57
2023/12/25 12:10:07;;;;;;;0.30;0.30;;;13.00;99.90;;;;;;5049380;28;20409;-56
2023/12/25 12:12:33;;;;;;;0.40;0.40;;;13.00;99.90;;;;;;5048705;28;20063;-58
2023/12/25 12:14:59;;;;;;;1.15;0.60;;;13.00;99.90;;;;;;5047383;28;20062;-55
2023/12/25 12:17:25;;;;;;;1.20;0.30;;;13.00;99.90;;;;;;5053433;28;20084;-56
2023/12/25 12:19:51;;;;;;;0.40;0.40;;;13.10;99.90;;;;;;5048167;28;20170;-56
2023/12/25 12:22:18;;;;;;;0.35;0.30;;;13.10;99.90;;;;;;5054284;28;20037;-56
2023/12/25 12:24:44;;;;;;;0.30;0.30;;;13.10;99.90;;;;;;5050843;28;20021;-56
2023/12/25 12:27:11;;;;;;;1.52;0.60;;;13.20;99.90;;;;;;5050891;28;20039;-56
2023/12/25 12:29:38;;;;;;;0.40;0.35;;;13.10;99.90;;;;;;5049762;28;20029;-56
2023/12/25 12:32:05;;;;;;;0.85;0.40;;;13.10;99.90;;;;;;5048654;28;20029;-59
2023/12/25 12:34:31;;;;;;;2.45;1.00;;;13.10;99.90;;;;;;5050661;28;20028;-60
2023/12/25 12:36:58;;;;;;;1.95;0.70;;;13.10;99.90;;;;;;5048155;28;20090;-59
2023/12/25 12:39:26;;;;;;;1.52;0.40;;;13.20;99.90;;;;;;5047137;28;20028;-55
2023/12/25 12:41:53;;;;;;;0.68;0.55;;;13.20;99.90;;;;;;5046299;28;20017;-58
2023/12/25 12:44:18;;;;;;;0.60;0.40;;;13.10;99.90;;;;;;5047024;28;20057;-57